sensor_id;sensor_type;location;lat;lon;timestamp;temperature;humidity
23237;DHT22;11787;52.018;8.570;2023-05-27T00:01:22;10.10;99.90
23237;DHT22;11787;52.018;8.570;2023-05-27T00:03:48;10.00;99.90
23237;DHT22;11787;52.018;8.570;2023-05-27T00:06:13;10.00;99.90
23237;DHT22;11787;52.018;8.570;2023-05-27T00:08:39;9.90;99.90
23237;DHT22;11787;52.018;8.570;2023-05-27T00:11:04;10.00;99.90
23237;DHT22;11787;52.018;8.570;2023-05-27T00:13:30;10.00;99.90
23237;DHT22;11787;52.018;8.570;2023-05-27T00:15:56;9.90;99.90
23237;DHT22;11787;52.018;8.570;2023-05-27T00:18:21;9.90;99.90
23237;DHT22;11787;52.018;8.570;2023-05-27T00:20:47;9.90;99.90
23237;DHT22;11787;52.018;8.570;2023-05-27T00:23:13;9.80;99.90
23237;DHT22;11787;52.018;8.570;2023-05-27T00:25:40;9.80;99.90
23237;DHT22;11787;52.018;8.570;2023-05-27T00:28:05;9.80;99.90
23237;DHT22;11787;52.018;8.570;2023-05-27T00:30:31;9.80;99.90
23237;DHT22;11787;52.018;8.570;2023-05-27T00:32:57;9.80;99.90
23237;DHT22;11787;52.018;8.570;2023-05-27T00:35:23;9.80;99.90
23237;DHT22;11787;52.018;8.570;2023-05-27T00:37:48;9.70;99.90
23237;DHT22;11787;52.018;8.570;2023-05-27T00:40:15;9.70;99.90
23237;DHT22;11787;52.018;8.570;2023-05-27T00:42:42;9.60;99.90
23237;DHT22;11787;52.018;8.570;2023-05-27T00:45:08;9.60;99.90
23237;DHT22;11787;52.018;8.570;2023-05-27T00:47:34;9.60;99.90
23237;DHT22;11787;52.018;8.570;2023-05-27T00:50:00;9.50;99.90
23237;DHT22;11787;52.018;8.570;2023-05-27T00:52:26;9.60;99.90
23237;DHT22;11787;52.018;8.570;2023-05-27T00:54:52;9.50;99.90
23237;DHT22;11787;52.018;8.570;2023-05-27T00:57:19;9.50;99.90
23237;DHT22;11787;52.018;8.570;2023-05-27T00:59:45;9.40;99.90
23237;DHT22;11787;52.018;8.570;2023-05-27T01:02:11;9.50;99.90
23237;DHT22;11787;52.018;8.570;2023-05-27T01:04:37;9.40;99.90
23237;DHT22;11787;52.018;8.570;2023-05-27T01:09:49;9.40;99.90
23237;DHT22;11787;52.018;8.570;2023-05-27T01:12:37;9.30;99.90
23237;DHT22;11787;52.018;8.570;2023-05-27T01:15:06;9.20;99.90
23237;DHT22;11787;52.018;8.570;2023-05-27T01:17:33;9.20;99.90
23237;DHT22;11787;52.018;8.570;2023-05-27T01:20:09;9.20;99.90
23237;DHT22;11787;52.018;8.570;2023-05-27T01:22:35;9.10;99.90
23237;DHT22;11787;52.018;8.570;2023-05-27T01:25:02;9.10;99.90
23237;DHT22;11787;52.018;8.570;2023-05-27T01:27:28;9.10;99.90
23237;DHT22;11787;52.018;8.570;2023-05-27T01:29:54;9.10;99.90
23237;DHT22;11787;52.018;8.570;2023-05-27T01:37:29;9.10;99.90
23237;DHT22;11787;52.018;8.570;2023-05-27T01:39:57;9.00;99.90
23237;DHT22;11787;52.018;8.570;2023-05-27T01:42:23;9.00;99.90
23237;DHT22;11787;52.018;8.570;2023-05-27T01:44:50;8.90;99.90
23237;DHT22;11787;52.018;8.570;2023-05-27T01:47:15;8.90;99.90
23237;DHT22;11787;52.018;8.570;2023-05-27T01:49:41;8.90;99.90
23237;DHT22;11787;52.018;8.570;2023-05-27T01:52:07;8.80;99.90
23237;DHT22;11787;52.018;8.570;2023-05-27T01:54:34;8.80;99.90
23237;DHT22;11787;52.018;8.570;2023-05-27T01:57:00;8.80;99.90
23237;DHT22;11787;52.018;8.570;2023-05-27T01:59:26;8.80;99.90
23237;DHT22;11787;52.018;8.570;2023-05-27T02:01:51;8.80;99.90
23237;DHT22;11787;52.018;8.570;2023-05-27T02:04:17;8.70;99.90
23237;DHT22;11787;52.018;8.570;2023-05-27T02:06:43;8.70;99.90
23237;DHT22;11787;52.018;8.570;2023-05-27T02:09:08;8.70;99.90
23237;DHT22;11787;52.018;8.570;2023-05-27T02:11:36;8.70;99.90
23237;DHT22;11787;52.018;8.570;2023-05-27T02:14:02;8.70;99.90
23237;DHT22;11787;52.018;8.570;2023-05-27T02:16:28;8.70;99.90
23237;DHT22;11787;52.018;8.570;2023-05-27T02:18:55;8.70;99.90
23237;DHT22;11787;52.018;8.570;2023-05-27T02:21:21;8.70;99.90
23237;DHT22;11787;52.018;8.570;2023-05-27T02:23:47;8.60;99.90
23237;DHT22;11787;52.018;8.570;2023-05-27T02:26:13;8.60;99.90
23237;DHT22;11787;52.018;8.570;2023-05-27T02:28:38;8.60;99.90
23237;DHT22;11787;52.018;8.570;2023-05-27T02:31:04;8.60;99.90
23237;DHT22;11787;52.018;8.570;2023-05-27T02:33:29;8.60;99.90
23237;DHT22;11787;52.018;8.570;2023-05-27T02:35:56;8.60;99.90
23237;DHT22;11787;52.018;8.570;2023-05-27T02:38:21;8.60;99.90
23237;DHT22;11787;52.018;8.570;2023-05-27T02:40:47;8.60;99.90
23237;DHT22;11787;52.018;8.570;2023-05-27T02:43:12;8.50;99.90
23237;DHT22;11787;52.018;8.570;2023-05-27T02:45:38;8.40;99.90
23237;DHT22;11787;52.018;8.570;2023-05-27T02:48:04;8.40;99.90
23237;DHT22;11787;52.018;8.570;2023-05-27T02:50:29;8.40;99.90
23237;DHT22;11787;52.018;8.570;2023-05-27T02:52:55;8.30;99.90
23237;DHT22;11787;52.018;8.570;2023-05-27T02:55:21;8.30;99.90
23237;DHT22;11787;52.018;8.570;2023-05-27T02:57:46;8.20;99.90
23237;DHT22;11787;52.018;8.570;2023-05-27T03:00:12;8.30;99.90
23237;DHT22;11787;52.018;8.570;2023-05-27T03:02:38;8.40;99.90
23237;DHT22;11787;52.018;8.570;2023-05-27T03:05:04;8.40;99.90
23237;DHT22;11787;52.018;8.570;2023-05-27T03:07:30;8.30;99.90
23237;DHT22;11787;52.018;8.570;2023-05-27T03:09:57;8.30;99.90
23237;DHT22;11787;52.018;8.570;2023-05-27T03:12:23;8.20;99.90
23237;DHT22;11787;52.018;8.570;2023-05-27T03:14:49;8.10;99.90
23237;DHT22;11787;52.018;8.570;2023-05-27T03:17:15;8.00;99.90
23237;DHT22;11787;52.018;8.570;2023-05-27T03:19:41;8.00;99.90
23237;DHT22;11787;52.018;8.570;2023-05-27T03:22:08;7.90;99.90
23237;DHT22;11787;52.018;8.570;2023-05-27T03:24:34;7.90;99.90
23237;DHT22;11787;52.018;8.570;2023-05-27T03:27:01;7.90;99.90
23237;DHT22;11787;52.018;8.570;2023-05-27T03:29:27;8.00;99.90
23237;DHT22;11787;52.018;8.570;2023-05-27T03:31:52;8.00;99.90
23237;DHT22;11787;52.018;8.570;2023-05-27T03:34:18;8.00;99.90
23237;DHT22;11787;52.018;8.570;2023-05-27T03:36:44;8.00;99.90
23237;DHT22;11787;52.018;8.570;2023-05-27T03:39:14;8.10;99.90
23237;DHT22;11787;52.018;8.570;2023-05-27T03:41:40;8.10;99.90
23237;DHT22;11787;52.018;8.570;2023-05-27T03:44:06;8.10;99.90
23237;DHT22;11787;52.018;8.570;2023-05-27T03:46:32;8.00;99.90
23237;DHT22;11787;52.018;8.570;2023-05-27T03:48:57;8.10;99.90
23237;DHT22;11787;52.018;8.570;2023-05-27T03:51:23;8.20;99.90
23237;DHT22;11787;52.018;8.570;2023-05-27T03:53:48;8.10;99.90
23237;DHT22;11787;52.018;8.570;2023-05-27T03:56:14;8.10;99.90
23237;DHT22;11787;52.018;8.570;2023-05-27T03:58:40;8.20;99.90
23237;DHT22;11787;52.018;8.570;2023-05-27T04:01:05;8.20;99.90
23237;DHT22;11787;52.018;8.570;2023-05-27T04:03:31;8.20;99.90
23237;DHT22;11787;52.018;8.570;2023-05-27T04:05:57;8.20;99.90
23237;DHT22;11787;52.018;8.570;2023-05-27T04:08:23;8.00;99.90
23237;DHT22;11787;52.018;8.570;2023-05-27T04:10:52;8.00;99.90
23237;DHT22;11787;52.018;8.570;2023-05-27T04:13:18;8.00;99.90
23237;DHT22;11787;52.018;8.570;2023-05-27T04:15:44;8.00;99.90
23237;DHT22;11787;52.018;8.570;2023-05-27T04:18:10;8.10;99.90
23237;DHT22;11787;52.018;8.570;2023-05-27T04:20:39;8.20;99.90
23237;DHT22;11787;52.018;8.570;2023-05-27T04:23:06;8.30;99.90
23237;DHT22;11787;52.018;8.570;2023-05-27T04:25:32;8.30;99.90
23237;DHT22;11787;52.018;8.570;2023-05-27T04:28:00;8.40;99.90
23237;DHT22;11787;52.018;8.570;2023-05-27T04:30:29;8.50;99.90
23237;DHT22;11787;52.018;8.570;2023-05-27T04:32:55;8.50;99.90
23237;DHT22;11787;52.018;8.570;2023-05-27T04:35:20;8.50;99.90
23237;DHT22;11787;52.018;8.570;2023-05-27T04:37:46;8.60;99.90
23237;DHT22;11787;52.018;8.570;2023-05-27T04:40:13;8.60;99.90
23237;DHT22;11787;52.018;8.570;2023-05-27T04:42:39;8.70;99.90
23237;DHT22;11787;52.018;8.570;2023-05-27T04:45:06;8.60;99.90
23237;DHT22;11787;52.018;8.570;2023-05-27T04:47:32;8.70;99.90
23237;DHT22;11787;52.018;8.570;2023-05-27T04:49:59;8.60;99.90
23237;DHT22;11787;52.018;8.570;2023-05-27T04:52:26;8.60;99.90
23237;DHT22;11787;52.018;8.570;2023-05-27T04:54:52;8.70;99.90
23237;DHT22;11787;52.018;8.570;2023-05-27T04:57:23;8.80;99.90
23237;DHT22;11787;52.018;8.570;2023-05-27T04:59:48;8.80;99.90
23237;DHT22;11787;52.018;8.570;2023-05-27T05:02:30;8.90;99.90
23237;DHT22;11787;52.018;8.570;2023-05-27T05:05:07;9.00;99.90
23237;DHT22;11787;52.018;8.570;2023-05-27T05:07:34;9.00;99.90
23237;DHT22;11787;52.018;8.570;2023-05-27T05:10:04;9.10;99.90
23237;DHT22;11787;52.018;8.570;2023-05-27T05:12:29;9.30;99.90
23237;DHT22;11787;52.018;8.570;2023-05-27T05:14:55;9.50;99.90
23237;DHT22;11787;52.018;8.570;2023-05-27T05:17:21;9.60;99.90
23237;DHT22;11787;52.018;8.570;2023-05-27T05:19:50;9.90;99.90
23237;DHT22;11787;52.018;8.570;2023-05-27T05:22:16;10.20;99.90
23237;DHT22;11787;52.018;8.570;2023-05-27T05:24:47;10.40;99.90
23237;DHT22;11787;52.018;8.570;2023-05-27T05:27:12;10.60;99.90
23237;DHT22;11787;52.018;8.570;2023-05-27T05:29:38;11.00;99.90
23237;DHT22;11787;52.018;8.570;2023-05-27T05:32:04;11.10;99.90
23237;DHT22;11787;52.018;8.570;2023-05-27T05:34:30;11.40;99.90
23237;DHT22;11787;52.018;8.570;2023-05-27T05:36:56;11.60;99.90
23237;DHT22;11787;52.018;8.570;2023-05-27T05:39:21;11.60;99.90
23237;DHT22;11787;52.018;8.570;2023-05-27T05:41:47;11.40;99.90
23237;DHT22;11787;52.018;8.570;2023-05-27T05:44:13;11.60;99.90
23237;DHT22;11787;52.018;8.570;2023-05-27T05:46:39;11.70;99.90
23237;DHT22;11787;52.018;8.570;2023-05-27T05:49:04;12.10;99.90
23237;DHT22;11787;52.018;8.570;2023-05-27T05:51:30;12.20;99.90
23237;DHT22;11787;52.018;8.570;2023-05-27T05:53:57;12.10;99.90
23237;DHT22;11787;52.018;8.570;2023-05-27T05:56:24;12.20;99.90
23237;DHT22;11787;52.018;8.570;2023-05-27T05:58:51;12.50;99.90
23237;DHT22;11787;52.018;8.570;2023-05-27T06:01:17;12.60;99.90
23237;DHT22;11787;52.018;8.570;2023-05-27T06:03:42;12.70;99.90
23237;DHT22;11787;52.018;8.570;2023-05-27T06:06:08;12.90;99.90
23237;DHT22;11787;52.018;8.570;2023-05-27T06:08:33;13.00;99.90
23237;DHT22;11787;52.018;8.570;2023-05-27T06:10:59;13.10;99.90
23237;DHT22;11787;52.018;8.570;2023-05-27T06:13:25;13.30;99.90
23237;DHT22;11787;52.018;8.570;2023-05-27T06:15:50;13.40;99.90
23237;DHT22;11787;52.018;8.570;2023-05-27T06:18:16;13.80;99.90
23237;DHT22;11787;52.018;8.570;2023-05-27T06:20:41;13.80;99.90
23237;DHT22;11787;52.018;8.570;2023-05-27T06:23:07;14.00;99.90
23237;DHT22;11787;52.018;8.570;2023-05-27T06:25:32;14.00;99.90
23237;DHT22;11787;52.018;8.570;2023-05-27T06:27:58;13.80;99.90
23237;DHT22;11787;52.018;8.570;2023-05-27T06:30:24;13.90;99.90
23237;DHT22;11787;52.018;8.570;2023-05-27T06:32:49;13.50;99.90
23237;DHT22;11787;52.018;8.570;2023-05-27T06:35:15;13.40;99.90
23237;DHT22;11787;52.018;8.570;2023-05-27T06:37:41;13.60;99.90
23237;DHT22;11787;52.018;8.570;2023-05-27T06:40:06;13.80;99.90
23237;DHT22;11787;52.018;8.570;2023-05-27T06:42:32;13.80;99.90
23237;DHT22;11787;52.018;8.570;2023-05-27T06:44:57;13.60;99.90
23237;DHT22;11787;52.018;8.570;2023-05-27T06:47:23;13.50;99.90
23237;DHT22;11787;52.018;8.570;2023-05-27T06:49:48;13.40;99.90
23237;DHT22;11787;52.018;8.570;2023-05-27T06:52:14;13.40;99.90
23237;DHT22;11787;52.018;8.570;2023-05-27T06:54:39;13.20;99.90
23237;DHT22;11787;52.018;8.570;2023-05-27T06:57:05;13.30;99.90
23237;DHT22;11787;52.018;8.570;2023-05-27T06:59:30;13.30;99.90
23237;DHT22;11787;52.018;8.570;2023-05-27T07:01:56;13.40;99.90
23237;DHT22;11787;52.018;8.570;2023-05-27T07:04:21;13.50;99.90
23237;DHT22;11787;52.018;8.570;2023-05-27T07:06:47;13.50;99.90
23237;DHT22;11787;52.018;8.570;2023-05-27T07:09:13;13.50;99.90
23237;DHT22;11787;52.018;8.570;2023-05-27T07:11:39;13.60;99.90
23237;DHT22;11787;52.018;8.570;2023-05-27T07:14:05;13.70;99.90
23237;DHT22;11787;52.018;8.570;2023-05-27T07:16:30;13.70;99.90
23237;DHT22;11787;52.018;8.570;2023-05-27T07:18:56;13.90;99.90
23237;DHT22;11787;52.018;8.570;2023-05-27T07:21:21;14.10;99.90
23237;DHT22;11787;52.018;8.570;2023-05-27T07:23:47;14.10;99.90
23237;DHT22;11787;52.018;8.570;2023-05-27T07:26:12;14.20;99.90
23237;DHT22;11787;52.018;8.570;2023-05-27T07:28:38;14.30;99.90
23237;DHT22;11787;52.018;8.570;2023-05-27T07:31:04;14.20;99.90
23237;DHT22;11787;52.018;8.570;2023-05-27T07:33:30;14.40;99.90
23237;DHT22;11787;52.018;8.570;2023-05-27T07:35:56;14.60;99.90
23237;DHT22;11787;52.018;8.570;2023-05-27T07:38:21;14.70;99.90
23237;DHT22;11787;52.018;8.570;2023-05-27T07:40:47;14.80;99.90
23237;DHT22;11787;52.018;8.570;2023-05-27T07:43:12;15.00;99.90
23237;DHT22;11787;52.018;8.570;2023-05-27T07:45:38;15.10;99.90
23237;DHT22;11787;52.018;8.570;2023-05-27T07:48:03;15.30;99.90
23237;DHT22;11787;52.018;8.570;2023-05-27T07:50:29;15.40;99.90
23237;DHT22;11787;52.018;8.570;2023-05-27T07:52:54;15.40;99.90
23237;DHT22;11787;52.018;8.570;2023-05-27T07:55:20;15.50;99.90
23237;DHT22;11787;52.018;8.570;2023-05-27T07:57:45;15.40;99.90
23237;DHT22;11787;52.018;8.570;2023-05-27T08:00:11;15.50;99.90
23237;DHT22;11787;52.018;8.570;2023-05-27T08:02:37;15.60;99.90
23237;DHT22;11787;52.018;8.570;2023-05-27T08:05:02;15.60;99.90
23237;DHT22;11787;52.018;8.570;2023-05-27T08:07:29;15.70;99.90
23237;DHT22;11787;52.018;8.570;2023-05-27T08:09:55;15.90;99.90
23237;DHT22;11787;52.018;8.570;2023-05-27T08:12:21;16.10;99.90
23237;DHT22;11787;52.018;8.570;2023-05-27T08:14:46;16.30;99.90
23237;DHT22;11787;52.018;8.570;2023-05-27T08:17:12;16.40;99.90
23237;DHT22;11787;52.018;8.570;2023-05-27T08:19:38;16.50;99.90
23237;DHT22;11787;52.018;8.570;2023-05-27T08:22:03;16.60;99.90
23237;DHT22;11787;52.018;8.570;2023-05-27T08:24:34;16.60;99.90
23237;DHT22;11787;52.018;8.570;2023-05-27T08:26:59;16.60;99.90
23237;DHT22;11787;52.018;8.570;2023-05-27T08:29:26;16.60;99.90
23237;DHT22;11787;52.018;8.570;2023-05-27T08:31:53;16.70;99.90
23237;DHT22;11787;52.018;8.570;2023-05-27T08:34:19;16.80;99.90
23237;DHT22;11787;52.018;8.570;2023-05-27T08:36:44;16.90;99.90
23237;DHT22;11787;52.018;8.570;2023-05-27T08:39:10;17.10;99.90
23237;DHT22;11787;52.018;8.570;2023-05-27T08:41:38;17.20;99.90
23237;DHT22;11787;52.018;8.570;2023-05-27T08:44:04;17.20;99.90
23237;DHT22;11787;52.018;8.570;2023-05-27T08:46:29;17.10;99.90
23237;DHT22;11787;52.018;8.570;2023-05-27T08:48:55;17.10;99.90
23237;DHT22;11787;52.018;8.570;2023-05-27T08:51:21;17.40;99.90
23237;DHT22;11787;52.018;8.570;2023-05-27T08:53:47;17.60;99.90
23237;DHT22;11787;52.018;8.570;2023-05-27T08:56:15;17.70;99.90
23237;DHT22;11787;52.018;8.570;2023-05-27T08:58:44;17.90;99.90
23237;DHT22;11787;52.018;8.570;2023-05-27T09:01:09;18.00;99.90
23237;DHT22;11787;52.018;8.570;2023-05-27T09:03:35;18.20;99.90
23237;DHT22;11787;52.018;8.570;2023-05-27T09:06:02;18.50;99.90
23237;DHT22;11787;52.018;8.570;2023-05-27T09:08:30;18.50;99.90
23237;DHT22;11787;52.018;8.570;2023-05-27T09:10:56;18.10;99.90
23237;DHT22;11787;52.018;8.570;2023-05-27T09:13:27;18.40;99.90
23237;DHT22;11787;52.018;8.570;2023-05-27T09:16:03;18.40;99.90
23237;DHT22;11787;52.018;8.570;2023-05-27T09:18:32;18.40;99.90
23237;DHT22;11787;52.018;8.570;2023-05-27T09:20:58;18.60;99.90
23237;DHT22;11787;52.018;8.570;2023-05-27T09:23:24;18.90;99.90
23237;DHT22;11787;52.018;8.570;2023-05-27T09:25:51;19.10;99.90
23237;DHT22;11787;52.018;8.570;2023-05-27T09:28:23;19.10;99.90
23237;DHT22;11787;52.018;8.570;2023-05-27T09:31:08;19.40;99.90
23237;DHT22;11787;52.018;8.570;2023-05-27T09:33:37;19.80;99.90
23237;DHT22;11787;52.018;8.570;2023-05-27T09:36:04;20.20;99.90
23237;DHT22;11787;52.018;8.570;2023-05-27T09:38:30;20.20;99.90
23237;DHT22;11787;52.018;8.570;2023-05-27T09:41:00;20.00;99.90
23237;DHT22;11787;52.018;8.570;2023-05-27T09:43:27;20.10;99.90
23237;DHT22;11787;52.018;8.570;2023-05-27T09:46:01;20.60;99.90
23237;DHT22;11787;52.018;8.570;2023-05-27T09:48:32;20.90;99.90
23237;DHT22;11787;52.018;8.570;2023-05-27T09:50:59;21.30;99.90
23237;DHT22;11787;52.018;8.570;2023-05-27T09:53:25;21.60;99.90
23237;DHT22;11787;52.018;8.570;2023-05-27T09:55:54;21.70;99.90
23237;DHT22;11787;52.018;8.570;2023-05-27T09:58:24;21.60;99.90
23237;DHT22;11787;52.018;8.570;2023-05-27T10:00:50;22.10;99.90
23237;DHT22;11787;52.018;8.570;2023-05-27T10:03:17;21.50;99.90
23237;DHT22;11787;52.018;8.570;2023-05-27T10:05:45;21.50;99.90
23237;DHT22;11787;52.018;8.570;2023-05-27T10:08:12;21.90;99.90
23237;DHT22;11787;52.018;8.570;2023-05-27T10:10:38;21.90;99.90
23237;DHT22;11787;52.018;8.570;2023-05-27T10:13:05;22.20;99.90
23237;DHT22;11787;52.018;8.570;2023-05-27T10:15:32;22.30;99.90
23237;DHT22;11787;52.018;8.570;2023-05-27T10:18:01;22.50;99.90
23237;DHT22;11787;52.018;8.570;2023-05-27T10:20:42;22.40;99.90
23237;DHT22;11787;52.018;8.570;2023-05-27T10:23:15;22.90;99.90
23237;DHT22;11787;52.018;8.570;2023-05-27T10:25:50;23.10;99.90
23237;DHT22;11787;52.018;8.570;2023-05-27T10:30:51;23.20;99.90
23237;DHT22;11787;52.018;8.570;2023-05-27T10:33:17;23.20;99.90
23237;DHT22;11787;52.018;8.570;2023-05-27T10:35:51;22.60;99.90
23237;DHT22;11787;52.018;8.570;2023-05-27T10:38:17;22.90;99.90
23237;DHT22;11787;52.018;8.570;2023-05-27T10:40:43;22.90;99.90
23237;DHT22;11787;52.018;8.570;2023-05-27T10:43:16;23.30;99.90
23237;DHT22;11787;52.018;8.570;2023-05-27T10:45:42;23.60;99.90
23237;DHT22;11787;52.018;8.570;2023-05-27T10:48:20;23.70;99.90
23237;DHT22;11787;52.018;8.570;2023-05-27T10:50:51;23.80;99.90
23237;DHT22;11787;52.018;8.570;2023-05-27T10:53:20;24.00;99.90
23237;DHT22;11787;52.018;8.570;2023-05-27T10:55:49;23.90;99.90
23237;DHT22;11787;52.018;8.570;2023-05-27T10:58:19;24.00;99.90
23237;DHT22;11787;52.018;8.570;2023-05-27T11:00:48;24.10;99.90
23237;DHT22;11787;52.018;8.570;2023-05-27T11:03:21;24.40;99.90
23237;DHT22;11787;52.018;8.570;2023-05-27T11:06:04;24.70;99.90
23237;DHT22;11787;52.018;8.570;2023-05-27T11:08:34;24.40;99.90
23237;DHT22;11787;52.018;8.570;2023-05-27T11:11:02;24.20;99.90
23237;DHT22;11787;52.018;8.570;2023-05-27T11:13:45;24.40;99.90
23237;DHT22;11787;52.018;8.570;2023-05-27T11:16:12;24.40;99.90
23237;DHT22;11787;52.018;8.570;2023-05-27T11:18:40;24.40;99.90
23237;DHT22;11787;52.018;8.570;2023-05-27T11:21:07;24.50;99.90
23237;DHT22;11787;52.018;8.570;2023-05-27T11:23:41;24.50;99.90
23237;DHT22;11787;52.018;8.570;2023-05-27T11:26:17;24.20;99.90
23237;DHT22;11787;52.018;8.570;2023-05-27T11:28:48;24.00;99.90
23237;DHT22;11787;52.018;8.570;2023-05-27T11:31:14;24.40;99.90
23237;DHT22;11787;52.018;8.570;2023-05-27T11:33:42;24.70;99.90
23237;DHT22;11787;52.018;8.570;2023-05-27T11:36:15;24.00;99.90
23237;DHT22;11787;52.018;8.570;2023-05-27T11:38:58;23.90;99.90
23237;DHT22;11787;52.018;8.570;2023-05-27T11:41:26;24.40;99.90
23237;DHT22;11787;52.018;8.570;2023-05-27T11:44:06;25.00;99.90
23237;DHT22;11787;52.018;8.570;2023-05-27T11:46:40;24.90;99.90
23237;DHT22;11787;52.018;8.570;2023-05-27T11:49:08;25.10;99.90
23237;DHT22;11787;52.018;8.570;2023-05-27T11:51:37;25.30;99.90
23237;DHT22;11787;52.018;8.570;2023-05-27T11:54:03;25.50;99.90
23237;DHT22;11787;52.018;8.570;2023-05-27T11:56:29;25.80;99.90
23237;DHT22;11787;52.018;8.570;2023-05-27T11:58:57;25.70;99.90
23237;DHT22;11787;52.018;8.570;2023-05-27T12:01:24;25.60;99.90
23237;DHT22;11787;52.018;8.570;2023-05-27T12:03:51;25.20;99.90
23237;DHT22;11787;52.018;8.570;2023-05-27T12:06:16;25.00;99.90
23237;DHT22;11787;52.018;8.570;2023-05-27T12:08:42;24.90;99.90
23237;DHT22;11787;52.018;8.570;2023-05-27T12:11:08;25.10;99.90
23237;DHT22;11787;52.018;8.570;2023-05-27T12:13:33;25.40;99.90
23237;DHT22;11787;52.018;8.570;2023-05-27T12:15:59;25.50;99.90
23237;DHT22;11787;52.018;8.570;2023-05-27T12:18:25;25.00;99.90
23237;DHT22;11787;52.018;8.570;2023-05-27T12:20:50;24.40;99.80
23237;DHT22;11787;52.018;8.570;2023-05-27T12:23:17;24.60;99.90
23237;DHT22;11787;52.018;8.570;2023-05-27T12:25:43;24.60;99.90
23237;DHT22;11787;52.018;8.570;2023-05-27T12:28:09;24.90;98.60
23237;DHT22;11787;52.018;8.570;2023-05-27T12:30:36;25.10;98.70
23237;DHT22;11787;52.018;8.570;2023-05-27T12:33:05;24.90;99.40
23237;DHT22;11787;52.018;8.570;2023-05-27T12:35:34;24.60;98.60
23237;DHT22;11787;52.018;8.570;2023-05-27T12:38:00;24.90;96.80
23237;DHT22;11787;52.018;8.570;2023-05-27T12:40:26;24.80;97.90
23237;DHT22;11787;52.018;8.570;2023-05-27T12:42:53;24.80;98.70
23237;DHT22;11787;52.018;8.570;2023-05-27T12:45:19;24.60;99.40
23237;DHT22;11787;52.018;8.570;2023-05-27T12:47:47;25.00;99.80
23237;DHT22;11787;52.018;8.570;2023-05-27T12:50:13;25.20;97.10
23237;DHT22;11787;52.018;8.570;2023-05-27T12:52:38;25.30;99.10
23237;DHT22;11787;52.018;8.570;2023-05-27T12:55:08;26.00;99.90
23237;DHT22;11787;52.018;8.570;2023-05-27T12:57:34;26.00;98.70
23237;DHT22;11787;52.018;8.570;2023-05-27T12:59:59;26.00;98.40
23237;DHT22;11787;52.018;8.570;2023-05-27T13:02:25;25.50;97.00
23237;DHT22;11787;52.018;8.570;2023-05-27T13:04:50;25.60;97.20
23237;DHT22;11787;52.018;8.570;2023-05-27T13:07:16;25.50;98.10
23237;DHT22;11787;52.018;8.570;2023-05-27T13:09:41;25.50;99.00
23237;DHT22;11787;52.018;8.570;2023-05-27T13:12:07;25.30;99.20
23237;DHT22;11787;52.018;8.570;2023-05-27T13:14:33;25.60;97.10
23237;DHT22;11787;52.018;8.570;2023-05-27T13:16:58;25.40;96.40
23237;DHT22;11787;52.018;8.570;2023-05-27T13:19:24;25.60;97.40
23237;DHT22;11787;52.018;8.570;2023-05-27T13:21:49;25.70;98.50
23237;DHT22;11787;52.018;8.570;2023-05-27T13:24:15;25.80;96.80
23237;DHT22;11787;52.018;8.570;2023-05-27T13:26:41;25.70;97.40
23237;DHT22;11787;52.018;8.570;2023-05-27T13:29:06;26.10;98.00
23237;DHT22;11787;52.018;8.570;2023-05-27T13:31:32;26.00;94.70
23237;DHT22;11787;52.018;8.570;2023-05-27T13:33:57;26.30;96.40
23237;DHT22;11787;52.018;8.570;2023-05-27T13:36:23;26.20;97.20
23237;DHT22;11787;52.018;8.570;2023-05-27T13:38:49;25.40;97.40
23237;DHT22;11787;52.018;8.570;2023-05-27T13:41:14;25.70;98.30
23237;DHT22;11787;52.018;8.570;2023-05-27T13:43:40;25.70;96.80
23237;DHT22;11787;52.018;8.570;2023-05-27T13:46:05;25.60;97.70
23237;DHT22;11787;52.018;8.570;2023-05-27T13:48:31;25.60;97.30
23237;DHT22;11787;52.018;8.570;2023-05-27T13:50:57;25.20;97.80
23237;DHT22;11787;52.018;8.570;2023-05-27T13:53:22;25.40;97.50
23237;DHT22;11787;52.018;8.570;2023-05-27T13:55:48;25.30;95.40
23237;DHT22;11787;52.018;8.570;2023-05-27T13:58:13;25.30;96.80
23237;DHT22;11787;52.018;8.570;2023-05-27T14:00:39;25.10;96.20
23237;DHT22;11787;52.018;8.570;2023-05-27T14:03:04;25.50;97.00
23237;DHT22;11787;52.018;8.570;2023-05-27T14:05:30;25.60;98.30
23237;DHT22;11787;52.018;8.570;2023-05-27T14:07:55;25.00;96.60
23237;DHT22;11787;52.018;8.570;2023-05-27T14:10:21;24.90;97.10
23237;DHT22;11787;52.018;8.570;2023-05-27T14:12:46;24.80;98.30
23237;DHT22;11787;52.018;8.570;2023-05-27T14:15:12;24.80;97.10
23237;DHT22;11787;52.018;8.570;2023-05-27T14:17:37;25.00;97.00
23237;DHT22;11787;52.018;8.570;2023-05-27T14:20:03;25.10;96.50
23237;DHT22;11787;52.018;8.570;2023-05-27T14:22:30;25.00;96.10
23237;DHT22;11787;52.018;8.570;2023-05-27T14:24:56;25.20;97.10
23237;DHT22;11787;52.018;8.570;2023-05-27T14:27:21;25.00;97.80
23237;DHT22;11787;52.018;8.570;2023-05-27T14:29:47;24.80;97.90
23237;DHT22;11787;52.018;8.570;2023-05-27T14:32:12;24.40;97.50
23237;DHT22;11787;52.018;8.570;2023-05-27T14:34:37;24.70;96.70
23237;DHT22;11787;52.018;8.570;2023-05-27T14:37:03;24.70;96.60
23237;DHT22;11787;52.018;8.570;2023-05-27T14:39:29;24.60;96.00
23237;DHT22;11787;52.018;8.570;2023-05-27T14:41:54;24.70;95.40
23237;DHT22;11787;52.018;8.570;2023-05-27T14:44:20;24.40;97.50
23237;DHT22;11787;52.018;8.570;2023-05-27T14:46:46;24.30;95.90
23237;DHT22;11787;52.018;8.570;2023-05-27T14:49:11;24.30;95.30
23237;DHT22;11787;52.018;8.570;2023-05-27T14:51:37;24.30;97.50
23237;DHT22;11787;52.018;8.570;2023-05-27T14:54:02;24.40;97.50
23237;DHT22;11787;52.018;8.570;2023-05-27T14:56:28;24.10;96.50
23237;DHT22;11787;52.018;8.570;2023-05-27T14:58:53;23.80;96.60
23237;DHT22;11787;52.018;8.570;2023-05-27T15:01:19;23.80;98.70
23237;DHT22;11787;52.018;8.570;2023-05-27T15:03:44;24.00;98.00
23237;DHT22;11787;52.018;8.570;2023-05-27T15:06:10;23.70;97.50
23237;DHT22;11787;52.018;8.570;2023-05-27T15:08:36;23.70;97.50
23237;DHT22;11787;52.018;8.570;2023-05-27T15:11:02;23.70;96.00
23237;DHT22;11787;52.018;8.570;2023-05-27T15:13:28;23.80;96.50
23237;DHT22;11787;52.018;8.570;2023-05-27T15:15:53;23.90;97.70
23237;DHT22;11787;52.018;8.570;2023-05-27T15:18:19;23.90;96.90
23237;DHT22;11787;52.018;8.570;2023-05-27T15:20:45;24.20;97.80
23237;DHT22;11787;52.018;8.570;2023-05-27T15:23:11;24.20;96.90
23237;DHT22;11787;52.018;8.570;2023-05-27T15:25:36;24.20;97.70
23237;DHT22;11787;52.018;8.570;2023-05-27T15:28:02;24.60;96.20
23237;DHT22;11787;52.018;8.570;2023-05-27T15:30:27;24.30;97.00
23237;DHT22;11787;52.018;8.570;2023-05-27T15:32:53;24.40;97.30
23237;DHT22;11787;52.018;8.570;2023-05-27T15:35:19;24.20;97.20
23237;DHT22;11787;52.018;8.570;2023-05-27T15:37:44;24.20;98.40
23237;DHT22;11787;52.018;8.570;2023-05-27T15:40:10;24.40;97.80
23237;DHT22;11787;52.018;8.570;2023-05-27T15:42:37;24.40;96.70